sensor_id;sensor_type;location;lat;lon;timestamp;pressure;altitude;pressure_sealevel;temperature;humidity
30682;BME280;17439;48.092;11.842;2023-03-04T00:00:04;95755.50;;;3.33;70.55
30682;BME280;17439;48.092;11.842;2023-03-04T00:02:35;95758.19;;;3.33;70.13
30682;BME280;17439;48.092;11.842;2023-03-04T00:05:02;95755.75;;;3.31;70.36
30682;BME280;17439;48.092;11.842;2023-03-04T00:07:29;95757.59;;;3.31;70.24
30682;BME280;17439;48.092;11.842;2023-03-04T00:09:56;95755.19;;;3.29;70.22
30682;BME280;17439;48.092;11.842;2023-03-04T00:12:23;95752.75;;;3.27;70.49
30682;BME280;17439;48.092;11.842;2023-03-04T00:14:49;95753.84;;;3.26;70.57
30682;BME280;17439;48.092;11.842;2023-03-04T00:17:16;95756.50;;;3.26;70.57
30682;BME280;17439;48.092;11.842;2023-03-04T00:19:43;95755.44;;;3.27;70.52
30682;BME280;17439;48.092;11.842;2023-03-04T00:22:09;95761.88;;;3.26;70.28
30682;BME280;17439;48.092;11.842;2023-03-04T00:24:36;95764.25;;;3.23;70.35
30682;BME280;17439;48.092;11.842;2023-03-04T00:27:03;95756.19;;;3.23;70.43
30682;BME280;17439;48.092;11.842;2023-03-04T00:29:29;95762.38;;;3.23;70.39
30682;BME280;17439;48.092;11.842;2023-03-04T00:31:56;95767.75;;;3.23;70.16
30682;BME280;17439;48.092;11.842;2023-03-04T00:34:23;95773.09;;;3.23;69.91
30682;BME280;17439;48.092;11.842;2023-03-04T00:36:50;95769.88;;;3.21;70.00
30682;BME280;17439;48.092;11.842;2023-03-04T00:39:17;95776.28;;;3.20;69.90
30682;BME280;17439;48.092;11.842;2023-03-04T00:41:43;95776.28;;;3.20;70.00
30682;BME280;17439;48.092;11.842;2023-03-04T00:44:11;95766.88;;;3.18;70.17
30682;BME280;17439;48.092;11.842;2023-03-04T00:46:38;95768.22;;;3.15;70.13
30682;BME280;17439;48.092;11.842;2023-03-04T00:49:04;95771.69;;;3.16;70.23
30682;BME280;17439;48.092;11.842;2023-03-04T00:51:31;95766.84;;;3.13;70.45
30682;BME280;17439;48.092;11.842;2023-03-04T00:53:58;95777.31;;;3.14;70.45
30682;BME280;17439;48.092;11.842;2023-03-04T00:56:27;95772.22;;;3.13;70.38
30682;BME280;17439;48.092;11.842;2023-03-04T00:58:54;95769.78;;;3.11;70.54
30682;BME280;17439;48.092;11.842;2023-03-04T01:01:21;95765.47;;;3.10;70.61
30682;BME280;17439;48.092;11.842;2023-03-04T01:03:48;95771.66;;;3.11;70.48
30682;BME280;17439;48.092;11.842;2023-03-04T01:06:15;95766.81;;;3.07;70.65
30682;BME280;17439;48.092;11.842;2023-03-04T01:08:43;95760.63;;;3.07;70.86
30682;BME280;17439;48.092;11.842;2023-03-04T01:11:10;95760.91;;;3.05;70.88
30682;BME280;17439;48.092;11.842;2023-03-04T01:13:36;95763.59;;;3.05;70.95
30682;BME280;17439;48.092;11.842;2023-03-04T01:16:03;95753.13;;;3.04;71.05
30682;BME280;17439;48.092;11.842;2023-03-04T01:18:30;95758.50;;;3.04;71.15
30682;BME280;17439;48.092;11.842;2023-03-04T01:20:58;95756.88;;;3.03;71.52
30682;BME280;17439;48.092;11.842;2023-03-04T01:23:25;95748.81;;;3.03;71.66
30682;BME280;17439;48.092;11.842;2023-03-04T01:25:52;95757.66;;;3.03;71.73
30682;BME280;17439;48.092;11.842;2023-03-04T01:28:18;95749.13;;;3.06;71.73
30682;BME280;17439;48.092;11.842;2023-03-04T01:30:46;95751.00;;;3.06;71.74
30682;BME280;17439;48.092;11.842;2023-03-04T01:33:13;95749.66;;;3.08;71.87
30682;BME280;17439;48.092;11.842;2023-03-04T01:35:41;95745.66;;;3.11;71.57
30682;BME280;17439;48.092;11.842;2023-03-04T01:38:07;95746.72;;;3.10;71.82
30682;BME280;17439;48.092;11.842;2023-03-04T01:40:34;95747.56;;;3.11;71.80
30682;BME280;17439;48.092;11.842;2023-03-04T01:43:02;95748.34;;;3.11;71.65
30682;BME280;17439;48.092;11.842;2023-03-04T01:45:30;95743.78;;;3.12;71.92
30682;BME280;17439;48.092;11.842;2023-03-04T01:47:57;95740.06;;;3.13;71.95
30682;BME280;17439;48.092;11.842;2023-03-04T01:50:32;95729.59;;;3.11;71.63
30682;BME280;17439;48.092;11.842;2023-03-04T01:53:00;95730.13;;;3.13;71.94
30682;BME280;17439;48.092;11.842;2023-03-04T01:55:27;95727.47;;;3.13;72.13
30682;BME280;17439;48.092;11.842;2023-03-04T01:57:55;95726.41;;;3.14;72.15
30682;BME280;17439;48.092;11.842;2023-03-04T02:03:13;95720.53;;;3.17;72.13
30682;BME280;17439;48.092;11.842;2023-03-04T02:05:43;95711.44;;;3.18;71.85
30682;BME280;17439;48.092;11.842;2023-03-04T02:08:13;95707.69;;;3.19;71.84
30682;BME280;17439;48.092;11.842;2023-03-04T02:10:41;95707.44;;;3.21;71.83
30682;BME280;17439;48.092;11.842;2023-03-04T02:13:10;95705.84;;;3.20;71.89
30682;BME280;17439;48.092;11.842;2023-03-04T02:15:38;95706.63;;;3.20;71.88
30682;BME280;17439;48.092;11.842;2023-03-04T02:18:24;95696.97;;;3.19;71.28
30682;BME280;17439;48.092;11.842;2023-03-04T02:23:45;95696.16;;;3.19;71.86
30682;BME280;17439;48.092;11.842;2023-03-04T02:26:15;95694.81;;;3.16;71.53
30682;BME280;17439;48.092;11.842;2023-03-04T02:28:46;95698.31;;;3.17;71.51
30682;BME280;17439;48.092;11.842;2023-03-04T02:31:22;95695.06;;;3.15;71.38
30682;BME280;17439;48.092;11.842;2023-03-04T02:33:51;95687.84;;;3.15;71.73
30682;BME280;17439;48.092;11.842;2023-03-04T02:36:19;95688.09;;;3.14;71.72
30682;BME280;17439;48.092;11.842;2023-03-04T02:38:49;95688.91;;;3.14;71.63
30682;BME280;17439;48.092;11.842;2023-03-04T02:41:19;95688.09;;;3.14;71.52
30682;BME280;17439;48.092;11.842;2023-03-04T02:43:50;95684.84;;;3.12;71.50
30682;BME280;17439;48.092;11.842;2023-03-04T02:46:18;95684.59;;;3.13;71.42
30682;BME280;17439;48.092;11.842;2023-03-04T02:48:45;95684.84;;;3.12;71.33
30682;BME280;17439;48.092;11.842;2023-03-04T02:51:12;95686.72;;;3.11;71.37
30682;BME280;17439;48.092;11.842;2023-03-04T02:53:39;95679.50;;;3.12;71.09
30682;BME280;17439;48.092;11.842;2023-03-04T02:56:06;95688.34;;;3.12;70.85
30682;BME280;17439;48.092;11.842;2023-03-04T02:58:35;95686.72;;;3.11;70.33
30682;BME280;17439;48.092;11.842;2023-03-04T03:01:02;95675.47;;;3.09;70.22
30682;BME280;17439;48.092;11.842;2023-03-04T03:03:29;95681.88;;;3.08;69.79
30682;BME280;17439;48.092;11.842;2023-03-04T03:05:55;95681.84;;;3.03;69.51
30682;BME280;17439;48.092;11.842;2023-03-04T03:08:24;95679.94;;;2.98;69.41
30682;BME280;17439;48.092;11.842;2023-03-04T03:10:52;95682.28;;;2.89;68.74
30682;BME280;17439;48.092;11.842;2023-03-04T03:13:20;95682.81;;;2.86;69.09
30682;BME280;17439;48.092;11.842;2023-03-04T03:15:46;95684.66;;;2.86;69.13
30682;BME280;17439;48.092;11.842;2023-03-04T03:18:15;95678.78;;;2.84;69.42
30682;BME280;17439;48.092;11.842;2023-03-04T03:20:42;95680.34;;;2.80;69.44
30682;BME280;17439;48.092;11.842;2023-03-04T03:23:08;95689.13;;;2.75;69.31
30682;BME280;17439;48.092;11.842;2023-03-04T03:25:35;95693.94;;;2.73;69.43
30682;BME280;17439;48.092;11.842;2023-03-04T03:28:04;95691.78;;;2.70;69.54
30682;BME280;17439;48.092;11.842;2023-03-04T03:30:31;95696.56;;;2.68;69.49
30682;BME280;17439;48.092;11.842;2023-03-04T03:32:57;95696.03;;;2.66;69.41
30682;BME280;17439;48.092;11.842;2023-03-04T03:35:24;95690.09;;;2.64;69.41
30682;BME280;17439;48.092;11.842;2023-03-04T03:37:51;95694.91;;;2.62;69.29
30682;BME280;17439;48.092;11.842;2023-03-04T03:40:17;95697.03;;;2.60;69.22
30682;BME280;17439;48.092;11.842;2023-03-04T03:42:44;95693.78;;;2.58;69.16
30682;BME280;17439;48.092;11.842;2023-03-04T03:45:11;95697.81;;;2.55;68.97
30682;BME280;17439;48.092;11.842;2023-03-04T03:47:37;95695.63;;;2.52;69.11
30682;BME280;17439;48.092;11.842;2023-03-04T03:50:04;95693.47;;;2.49;69.12
30682;BME280;17439;48.092;11.842;2023-03-04T03:52:31;95697.44;;;2.46;69.23
30682;BME280;17439;48.092;11.842;2023-03-04T03:54:58;95697.69;;;2.45;69.31
30682;BME280;17439;48.092;11.842;2023-03-04T03:57:28;95700.88;;;2.42;69.21
30682;BME280;17439;48.092;11.842;2023-03-04T03:59:55;95690.94;;;2.37;69.12
30682;BME280;17439;48.092;11.842;2023-03-04T04:02:24;95691.44;;;2.34;69.29
30682;BME280;17439;48.092;11.842;2023-03-04T04:04:52;95692.50;;;2.33;69.26
30682;BME280;17439;48.092;11.842;2023-03-04T04:07:19;95689.28;;;2.31;69.23
30682;BME280;17439;48.092;11.842;2023-03-04T04:09:46;95701.03;;;2.30;69.38
30682;BME280;17439;48.092;11.842;2023-03-04T04:12:14;95692.72;;;2.26;69.28
30682;BME280;17439;48.092;11.842;2023-03-04T04:14:44;95691.34;;;2.24;69.39
30682;BME280;17439;48.092;11.842;2023-03-04T04:17:11;95690.78;;;2.22;69.23
30682;BME280;17439;48.092;11.842;2023-03-04T04:19:39;95699.84;;;2.21;69.32
30682;BME280;17439;48.092;11.842;2023-03-04T04:22:07;95688.81;;;2.12;68.90
30682;BME280;17439;48.092;11.842;2023-03-04T04:24:34;95692.84;;;2.14;69.20
30682;BME280;17439;48.092;11.842;2023-03-04T04:27:00;95694.97;;;2.12;69.34
30682;BME280;17439;48.092;11.842;2023-03-04T04:29:27;95696.00;;;2.11;69.03
30682;BME280;17439;48.092;11.842;2023-03-04T04:31:54;95698.13;;;2.09;69.34
30682;BME280;17439;48.092;11.842;2023-03-04T04:34:21;95693.84;;;2.08;69.32
30682;BME280;17439;48.092;11.842;2023-03-04T04:36:48;95691.66;;;2.05;69.21
30682;BME280;17439;48.092;11.842;2023-03-04T04:39:14;95690.63;;;2.06;69.38
30682;BME280;17439;48.092;11.842;2023-03-04T04:41:43;95694.63;;;2.04;69.33
30682;BME280;17439;48.092;11.842;2023-03-04T04:44:11;95696.47;;;2.03;69.33
30682;BME280;17439;48.092;11.842;2023-03-04T04:46:38;95692.19;;;2.02;69.35
30682;BME280;17439;48.092;11.842;2023-03-04T04:49:06;95694.88;;;2.02;69.57
30682;BME280;17439;48.092;11.842;2023-03-04T04:51:34;95690.56;;;2.01;69.73
30682;BME280;17439;48.092;11.842;2023-03-04T04:54:03;95690.56;;;2.01;69.70
30682;BME280;17439;48.092;11.842;2023-03-04T04:56:30;95690.56;;;2.01;70.02
30682;BME280;17439;48.092;11.842;2023-03-04T04:58:58;95690.56;;;2.01;69.91
30682;BME280;17439;48.092;11.842;2023-03-04T05:01:26;95692.19;;;2.02;69.99
30682;BME280;17439;48.092;11.842;2023-03-04T05:03:53;95684.41;;;2.01;69.74
30682;BME280;17439;48.092;11.842;2023-03-04T05:06:22;95689.75;;;2.01;69.56
30682;BME280;17439;48.092;11.842;2023-03-04T05:08:50;95692.44;;;2.01;69.50
30682;BME280;17439;48.092;11.842;2023-03-04T05:11:17;95693.50;;;1.99;69.56
30682;BME280;17439;48.092;11.842;2023-03-04T05:13:45;95693.75;;;1.98;69.46
30682;BME280;17439;48.092;11.842;2023-03-04T05:16:12;95692.09;;;1.97;69.67
30682;BME280;17439;48.092;11.842;2023-03-04T05:18:39;95691.06;;;1.98;69.91
30682;BME280;17439;48.092;11.842;2023-03-04T05:21:05;95693.19;;;1.96;69.89
30682;BME280;17439;48.092;11.842;2023-03-04T05:23:35;95690.50;;;1.96;69.90
30682;BME280;17439;48.092;11.842;2023-03-04T05:26:03;95697.72;;;1.95;69.92
30682;BME280;17439;48.092;11.842;2023-03-04T05:28:30;95694.22;;;1.95;69.62
30682;BME280;17439;48.092;11.842;2023-03-04T05:30:57;95691.00;;;1.93;69.81
30682;BME280;17439;48.092;11.842;2023-03-04T05:33:23;95696.34;;;1.93;69.54
30682;BME280;17439;48.092;11.842;2023-03-04T05:35:50;95697.41;;;1.92;69.66
30682;BME280;17439;48.092;11.842;2023-03-04T05:38:21;95694.72;;;1.92;69.42
30682;BME280;17439;48.092;11.842;2023-03-04T05:41:01;95695.47;;;1.87;69.29
30682;BME280;17439;48.092;11.842;2023-03-04T05:43:29;95700.56;;;1.89;69.35
30682;BME280;17439;48.092;11.842;2023-03-04T05:46:04;95697.34;;;1.87;69.39
30682;BME280;17439;48.092;11.842;2023-03-04T05:48:48;95706.41;;;1.86;69.19
30682;BME280;17439;48.092;11.842;2023-03-04T05:51:15;95704.81;;;1.85;69.44
30682;BME280;17439;48.092;11.842;2023-03-04T05:56:29;95699.97;;;1.81;69.66
30682;BME280;17439;48.092;11.842;2023-03-04T05:58:57;95702.66;;;1.81;69.45
30682;BME280;17439;48.092;11.842;2023-03-04T06:01:24;95701.03;;;1.80;69.42
30682;BME280;17439;48.092;11.842;2023-03-04T06:03:51;95710.09;;;1.79;69.59
30682;BME280;17439;48.092;11.842;2023-03-04T06:06:18;95711.97;;;1.79;69.49
30682;BME280;17439;48.092;11.842;2023-03-04T06:08:48;95711.16;;;1.78;69.47
30682;BME280;17439;48.092;11.842;2023-03-04T06:11:15;95716.50;;;1.78;69.73
30682;BME280;17439;48.092;11.842;2023-03-04T06:13:42;95716.50;;;1.78;69.78
30682;BME280;17439;48.092;11.842;2023-03-04T06:16:11;95723.44;;;1.79;69.92
30682;BME280;17439;48.092;11.842;2023-03-04T06:18:41;95721.59;;;1.80;70.02
30682;BME280;17439;48.092;11.842;2023-03-04T06:21:10;95717.31;;;1.79;70.30
30682;BME280;17439;48.092;11.842;2023-03-04T06:23:37;95722.16;;;1.82;70.41
30682;BME280;17439;48.092;11.842;2023-03-04T06:26:04;95717.59;;;1.83;70.43
30682;BME280;17439;48.092;11.842;2023-03-04T06:28:34;95724.59;;;1.84;70.69
30682;BME280;17439;48.092;11.842;2023-03-04T06:31:01;95732.13;;;1.87;70.82
30682;BME280;17439;48.092;11.842;2023-03-04T06:33:28;95736.13;;;1.89;71.02
30682;BME280;17439;48.092;11.842;2023-03-04T06:35:55;95731.38;;;1.91;71.27
30682;BME280;17439;48.092;11.842;2023-03-04T06:38:23;95738.06;;;1.94;71.37
30682;BME280;17439;48.092;11.842;2023-03-04T06:40:50;95731.97;;;1.98;71.69
30682;BME280;17439;48.092;11.842;2023-03-04T06:43:18;95740.31;;;2.02;71.91
30682;BME280;17439;48.092;11.842;2023-03-04T06:45:45;95744.91;;;2.07;72.08
30682;BME280;17439;48.092;11.842;2023-03-04T06:48:12;95738.25;;;2.09;72.42
30682;BME280;17439;48.092;11.842;2023-03-04T06:50:39;95751.69;;;2.14;72.48
30682;BME280;17439;48.092;11.842;2023-03-04T06:53:06;95748.00;;;2.21;72.90
30682;BME280;17439;48.092;11.842;2023-03-04T06:55:32;95749.69;;;2.27;73.16
30682;BME280;17439;48.092;11.842;2023-03-04T06:57:59;95757.22;;;2.30;73.08
30682;BME280;17439;48.092;11.842;2023-03-04T07:00:26;95749.00;;;2.36;73.57
30682;BME280;17439;48.092;11.842;2023-03-04T07:02:54;95748.00;;;2.43;73.82
30682;BME280;17439;48.092;11.842;2023-03-04T07:05:20;95748.88;;;2.48;73.89
30682;BME280;17439;48.092;11.842;2023-03-04T07:07:47;95748.91;;;2.53;73.97
30682;BME280;17439;48.092;11.842;2023-03-04T07:10:14;95747.31;;;2.58;73.90
30682;BME280;17439;48.092;11.842;2023-03-04T07:12:40;95745.28;;;2.65;74.13
30682;BME280;17439;48.092;11.842;2023-03-04T07:15:08;95749.63;;;2.71;74.26
30682;BME280;17439;48.092;11.842;2023-03-04T07:17:35;95747.78;;;2.77;74.33
30682;BME280;17439;48.092;11.842;2023-03-04T07:20:02;95748.66;;;2.82;74.42
30682;BME280;17439;48.092;11.842;2023-03-04T07:22:31;95746.56;;;2.89;74.13
30682;BME280;17439;48.092;11.842;2023-03-04T07:25:01;95754.16;;;2.98;74.75
30682;BME280;17439;48.092;11.842;2023-03-04T07:27:28;95756.88;;;3.03;74.94
30682;BME280;17439;48.092;11.842;2023-03-04T07:29:54;95758.53;;;3.09;74.88
30682;BME280;17439;48.092;11.842;2023-03-04T07:32:21;95761.78;;;3.16;75.02
30682;BME280;17439;48.092;11.842;2023-03-04T07:34:48;95767.75;;;3.23;75.03
30682;BME280;17439;48.092;11.842;2023-03-04T07:37:15;95759.75;;;3.29;75.12
30682;BME280;17439;48.092;11.842;2023-03-04T07:39:43;95772.13;;;3.35;74.68
30682;BME280;17439;48.092;11.842;2023-03-04T07:42:10;95768.41;;;3.41;75.03
30682;BME280;17439;48.092;11.842;2023-03-04T07:44:39;95768.97;;;3.48;75.00
30682;BME280;17439;48.092;11.842;2023-03-04T07:47:06;95774.16;;;3.55;75.29
30682;BME280;17439;48.092;11.842;2023-03-04T07:49:33;95783.00;;;3.60;75.30
30682;BME280;17439;48.092;11.842;2023-03-04T07:52:03;95787.84;;;3.63;74.33
30682;BME280;17439;48.092;11.842;2023-03-04T07:54:30;95782.25;;;3.70;75.20
30682;BME280;17439;48.092;11.842;2023-03-04T07:56:58;95785.81;;;3.76;75.01
30682;BME280;17439;48.092;11.842;2023-03-04T07:59:25;95783.69;;;3.83;75.22
30682;BME280;17439;48.092;11.842;2023-03-04T08:01:52;95786.41;;;3.88;74.98
30682;BME280;17439;48.092;11.842;2023-03-04T08:04:18;95791.53;;;3.90;74.58
30682;BME280;17439;48.092;11.842;2023-03-04T08:06:45;95777.31;;;3.94;74.71
30682;BME280;17439;48.092;11.842;2023-03-04T08:09:12;95783.78;;;3.98;74.80
30682;BME280;17439;48.092;11.842;2023-03-04T08:11:40;95793.97;;;4.02;74.58
30682;BME280;17439;48.092;11.842;2023-03-04T08:14:07;95793.22;;;4.06;74.50
30682;BME280;17439;48.092;11.842;2023-03-04T08:16:38;95792.94;;;4.08;73.92
30682;BME280;17439;48.092;11.842;2023-03-04T08:19:06;95793.22;;;4.11;73.93
30682;BME280;17439;48.092;11.842;2023-03-04T08:21:34;95793.25;;;4.16;74.07
30682;BME280;17439;48.092;11.842;2023-03-04T08:24:02;95790.28;;;4.18;74.01
30682;BME280;17439;48.092;11.842;2023-03-04T08:26:31;95799.97;;;4.19;72.98
30682;BME280;17439;48.092;11.842;2023-03-04T08:29:00;95795.41;;;4.25;73.98
30682;BME280;17439;48.092;11.842;2023-03-04T08:31:29;95800.31;;;4.33;73.93
30682;BME280;17439;48.092;11.842;2023-03-04T08:33:56;95795.22;;;4.36;73.58
30682;BME280;17439;48.092;11.842;2023-03-04T08:36:23;95791.22;;;4.39;73.57
30682;BME280;17439;48.092;11.842;2023-03-04T08:38:52;95786.63;;;4.40;73.12
30682;BME280;17439;48.092;11.842;2023-03-04T08:41:20;95790.41;;;4.44;73.55
30682;BME280;17439;48.092;11.842;2023-03-04T08:43:47;95782.38;;;4.49;72.87
30682;BME280;17439;48.092;11.842;2023-03-04T08:46:14;95785.59;;;4.51;73.38
30682;BME280;17439;48.092;11.842;2023-03-04T08:48:41;95788.28;;;4.56;72.75
30682;BME280;17439;48.092;11.842;2023-03-04T08:51:15;95790.72;;;4.63;73.30
30682;BME280;17439;48.092;11.842;2023-03-04T08:53:43;95782.97;;;4.66;72.42
30682;BME280;17439;48.092;11.842;2023-03-04T08:56:11;95794.78;;;4.76;73.58
30682;BME280;17439;48.092;11.842;2023-03-04T08:58:39;95792.94;;;4.81;73.43
30682;BME280;17439;48.092;11.842;2023-03-04T09:01:10;95793.75;;;4.87;72.10
30682;BME280;17439;48.092;11.842;2023-03-04T09:03:38;95791.59;;;4.94;72.76
30682;BME280;17439;48.092;11.842;2023-03-04T09:06:06;95791.59;;;4.99;72.04
30682;BME280;17439;48.092;11.842;2023-03-04T09:08:34;95785.97;;;5.01;71.67
30682;BME280;17439;48.092;11.842;2023-03-04T09:11:01;95779.25;;;5.08;71.88
30682;BME280;17439;48.092;11.842;2023-03-04T09:13:29;95784.63;;;5.14;71.75
30682;BME280;17439;48.092;11.842;2023-03-04T09:15:57;95774.72;;;5.19;72.54
30682;BME280;17439;48.092;11.842;2023-03-04T09:18:25;95780.06;;;5.24;72.30
30682;BME280;17439;48.092;11.842;2023-03-04T09:20:54;95773.09;;;5.34;73.08
30682;BME280;17439;48.092;11.842;2023-03-04T09:23:21;95774.97;;;5.38;72.83
30682;BME280;17439;48.092;11.842;2023-03-04T09:25:48;95769.59;;;5.43;72.32
30682;BME280;17439;48.092;11.842;2023-03-04T09:28:16;95771.47;;;5.48;71.35
30682;BME280;17439;48.092;11.842;2023-03-04T09:30:44;95767.97;;;5.53;71.28
30682;BME280;17439;48.092;11.842;2023-03-04T09:33:16;95764.72;;;5.66;71.33
30682;BME280;17439;48.092;11.842;2023-03-04T09:35:43;95757.47;;;5.72;70.87
30682;BME280;17439;48.092;11.842;2023-03-04T09:38:09;95756.66;;;5.76;71.12
30682;BME280;17439;48.092;11.842;2023-03-04T09:43:04;95756.09;;;5.85;69.86
30682;BME280;17439;48.092;11.842;2023-03-04T09:45:42;95756.06;;;5.90;67.88
30682;BME280;17439;48.092;11.842;2023-03-04T09:48:16;95745.84;;;5.87;63.96
30682;BME280;17439;48.092;11.842;2023-03-04T09:51:13;95750.41;;;5.96;67.31
30682;BME280;17439;48.092;11.842;2023-03-04T09:54:19;95755.00;;;6.06;67.90
30682;BME280;17439;48.092;11.842;2023-03-04T09:56:50;95753.59;;;6.14;69.42
30682;BME280;17439;48.092;11.842;2023-03-04T09:59:34;95745.75;;;6.23;69.23
30682;BME280;17439;48.092;11.842;2023-03-04T10:04:58;95741.16;;;6.33;64.88
30682;BME280;17439;48.092;11.842;2023-03-04T10:07:32;95744.59;;;6.39;65.94
30682;BME280;17439;48.092;11.842;2023-03-04T10:10:04;95742.94;;;6.48;67.13
30682;BME280;17439;48.092;11.842;2023-03-04T10:12:35;95744.53;;;6.54;65.74
30682;BME280;17439;48.092;11.842;2023-03-04T10:15:07;95737.97;;;6.71;67.49
30682;BME280;17439;48.092;11.842;2023-03-04T10:17:46;95737.41;;;6.79;67.24
30682;BME280;17439;48.092;11.842;2023-03-04T10:20:23;95734.09;;;6.87;66.68
30682;BME280;17439;48.092;11.842;2023-03-04T10:22:56;95737.56;;;6.93;65.24
30682;BME280;17439;48.092;11.842;2023-03-04T10:25:31;95729.66;;;7.07;64.12
30682;BME280;17439;48.092;11.842;2023-03-04T10:28:03;95728.53;;;7.13;62.65
30682;BME280;17439;48.092;11.842;2023-03-04T10:30:51;95720.16;;;7.15;61.89
30682;BME280;17439;48.092;11.842;2023-03-04T10:33:28;95719.59;;;7.18;59.24
30682;BME280;17439;48.092;11.842;2023-03-04T10:38:33;95715.50;;;7.25;61.73
30682;BME280;17439;48.092;11.842;2023-03-04T10:41:14;95717.53;;;7.39;60.68
30682;BME280;17439;48.092;11.842;2023-03-04T10:43:42;95725.56;;;7.44;60.37
30682;BME280;17439;48.092;11.842;2023-03-04T10:46:10;95719.31;;;7.49;60.07
30682;BME280;17439;48.092;11.842;2023-03-04T10:48:40;95719.81;;;7.51;60.88
30682;BME280;17439;48.092;11.842;2023-03-04T10:51:20;95707.09;;;7.56;59.51
30682;BME280;17439;48.092;11.842;2023-03-04T10:53:50;95711.13;;;7.59;59.24
30682;BME280;17439;48.092;11.842;2023-03-04T10:56:40;95710.31;;;7.58;55.63
30682;BME280;17439;48.092;11.842;2023-03-04T11:04:40;95697.44;;;7.79;59.89
30682;BME280;17439;48.092;11.842;2023-03-04T11:07:10;95702.47;;;7.86;55.36
30682;BME280;17439;48.092;11.842;2023-03-04T11:09:37;95690.53;;;7.92;59.49
30682;BME280;17439;48.092;11.842;2023-03-04T11:12:10;95698.22;;;8.04;57.35
30682;BME280;17439;48.092;11.842;2023-03-04T11:14:57;95693.50;;;8.15;55.34
30682;BME280;17439;48.092;11.842;2023-03-04T11:17:26;95692.34;;;8.21;57.11
30682;BME280;17439;48.092;11.842;2023-03-04T11:22:31;95684.97;;;8.27;55.31
30682;BME280;17439;48.092;11.842;2023-03-04T11:25:02;95687.25;;;8.39;56.38
30682;BME280;17439;48.092;11.842;2023-03-04T11:30:26;95684.72;;;8.47;55.36
30682;BME280;17439;48.092;11.842;2023-03-04T11:33:01;95675.34;;;8.40;56.10
30682;BME280;17439;48.092;11.842;2023-03-04T11:35:41;95693.75;;;8.38;54.23
30682;BME280;17439;48.092;11.842;2023-03-04T11:38:21;95672.34;;;8.46;54.17
30682;BME280;17439;48.092;11.842;2023-03-04T11:40:56;95682.19;;;8.56;51.84
30682;BME280;17439;48.092;11.842;2023-03-04T11:43:29;95684.91;;;8.56;54.43
30682;BME280;17439;48.092;11.842;2023-03-04T11:56:59;95671.09;;;8.77;53.63
30682;BME280;17439;48.092;11.842;2023-03-04T12:00:08;95671.59;;;8.79;53.45
30682;BME280;17439;48.092;11.842;2023-03-04T12:05:27;95663.84;;;8.72;54.36
30682;BME280;17439;48.092;11.842;2023-03-04T12:08:14;95658.44;;;8.72;50.22
30682;BME280;17439;48.092;11.842;2023-03-04T12:10:54;95655.22;;;8.70;53.26
30682;BME280;17439;48.092;11.842;2023-03-04T12:18:54;95658.16;;;9.06;51.88
30682;BME280;17439;48.092;11.842;2023-03-04T12:24:15;95639.16;;;9.12;51.11
30682;BME280;17439;48.092;11.842;2023-03-04T12:26:55;95640.13;;;9.02;50.12
30682;BME280;17439;48.092;11.842;2023-03-04T12:40:49;95625.31;;;8.99;51.71
30682;BME280;17439;48.092;11.842;2023-03-04T12:49:01;95606.63;;;8.84;52.28
30682;BME280;17439;48.092;11.842;2023-03-04T12:51:45;95598.22;;;8.85;54.07
30682;BME280;17439;48.092;11.842;2023-03-04T13:16:59;95574.44;;;9.15;54.30
30682;BME280;17439;48.092;11.842;2023-03-04T13:19:55;95578.97;;;9.20;53.14
30682;BME280;17439;48.092;11.842;2023-03-04T13:51:17;95574.44;;;9.15;50.63
30682;BME280;17439;48.092;11.842;2023-03-04T13:54:06;95560.41;;;8.99;51.44
30682;BME280;17439;48.092;11.842;2023-03-04T14:02:07;95557.66;;;8.85;51.51
30682;BME280;17439;48.092;11.842;2023-03-04T14:04:37;95564.09;;;8.89;50.96
30682;BME280;17439;48.092;11.842;2023-03-04T14:10:01;95557.25;;;8.78;51.83
30682;BME280;17439;48.092;11.842;2023-03-04T14:12:30;95557.03;;;8.75;51.50
30682;BME280;17439;48.092;11.842;2023-03-04T14:15:00;95555.94;;;8.76;51.53
30682;BME280;17439;48.092;11.842;2023-03-04T14:17:34;95552.00;;;8.68;51.36
30682;BME280;17439;48.092;11.842;2023-03-04T14:20:04;95551.91;;;8.59;52.38
30682;BME280;17439;48.092;11.842;2023-03-04T14:22:37;95550.28;;;8.58;52.12
30682;BME280;17439;48.092;11.842;2023-03-04T14:27:40;95563.66;;;8.49;52.20
30682;BME280;17439;48.092;11.842;2023-03-04T14:30:23;95554.25;;;8.47;51.54
30682;BME280;17439;48.092;11.842;2023-03-04T14:33:13;95559.84;;;8.50;51.02
30682;BME280;17439;48.092;11.842;2023-03-04T14:35:46;95557.66;;;8.33;51.78
30682;BME280;17439;48.092;11.842;2023-03-04T14:38:23;95547.66;;;8.34;51.30
30682;BME280;17439;48.092;11.842;2023-03-04T14:41:01;95549.53;;;8.33;50.66
30682;BME280;17439;48.092;11.842;2023-03-04T14:43:35;95548.09;;;8.22;51.34
30682;BME280;17439;48.092;11.842;2023-03-04T14:46:07;95560.16;;;8.11;52.07
30682;BME280;17439;48.092;11.842;2023-03-04T14:48:37;95555.78;;;7.96;53.21
30682;BME280;17439;48.092;11.842;2023-03-04T14:51:05;95557.06;;;7.98;51.48
30682;BME280;17439;48.092;11.842;2023-03-04T14:53:32;95552.88;;;7.92;51.82
30682;BME280;17439;48.092;11.842;2023-03-04T14:56:07;95557.31;;;7.83;52.39
30682;BME280;17439;48.092;11.842;2023-03-04T14:58:36;95554.50;;;7.69;52.71
30682;BME280;17439;48.092;11.842;2023-03-04T15:01:17;95556.53;;;7.58;53.59
30682;BME280;17439;48.092;11.842;2023-03-04T15:03:55;95566.06;;;7.51;53.14
30682;BME280;17439;48.092;11.842;2023-03-04T15:06:25;95562.44;;;7.60;51.20
30682;BME280;17439;48.092;11.842;2023-03-04T15:11:30;95556.94;;;7.47;51.77
30682;BME280;17439;48.092;11.842;2023-03-04T15:13:59;95557.63;;;7.33;52.16
30682;BME280;17439;48.092;11.842;2023-03-04T15:16:28;95563.44;;;7.21;52.45
30682;BME280;17439;48.092;11.842;2023-03-04T15:19:26;95552.50;;;7.07;52.61
30682;BME280;17439;48.092;11.842;2023-03-04T15:22:04;95553.13;;;6.99;52.87
30682;BME280;17439;48.092;11.842;2023-03-04T15:24:34;95561.44;;;7.03;51.80